Time;durP1;ratioP1;P1;durP2;ratioP2;P2;SDS_P1;SDS_P2;PMS_P1;PMS_P2;Temp;Humidity;BMP_temperature;BMP_pressure;BME280_temperature;BME280_humidity;BME280_pressure;Samples;Min_cycle;Max_cycle;Signal;HPM_P1;HPM_P2
2023/03/30 00:01:10;;;;;;;1.60;1.20;;;14.80;74.60;;;;;;5041494;28;20042;-64
2023/03/30 00:03:37;;;;;;;1.02;0.90;;;14.70;74.60;;;;;;5047873;28;20354;-65
2023/03/30 00:06:05;;;;;;;1.48;1.25;;;14.80;74.60;;;;;;5034343;28;20392;-65
2023/03/30 00:08:32;;;;;;;1.55;1.00;;;14.80;74.50;;;;;;5044144;28;20040;-64
2023/03/30 00:11:02;;;;;;;1.45;0.98;;;14.80;74.30;;;;;;5040311;28;20014;-63
2023/03/30 00:13:30;;;;;;;2.30;1.17;;;14.80;74.20;;;;;;5046632;28;20028;-65
2023/03/30 00:15:55;;;;;;;2.20;1.10;;;14.80;74.10;;;;;;5035502;28;20051;-64
2023/03/30 00:18:21;;;;;;;3.55;1.38;;;14.80;74.20;;;;;;5071454;28;20513;-64
2023/03/30 00:20:51;;;;;;;3.33;1.35;;;14.80;74.10;;;;;;5033838;28;20041;-66
2023/03/30 00:23:18;;;;;;;6.90;1.55;;;14.80;73.90;;;;;;5049526;28;20026;-65
2023/03/30 00:25:44;;;;;;;1.98;0.80;;;14.90;73.70;;;;;;5045642;28;20074;-66
2023/03/30 00:28:10;;;;;;;3.55;1.30;;;14.90;73.60;;;;;;5047836;28;20017;-66
2023/03/30 00:30:36;;;;;;;1.83;1.15;;;14.90;73.60;;;;;;5042814;28;20060;-66
2023/03/30 00:33:02;;;;;;;1.42;0.93;;;14.90;74.10;;;;;;5051035;28;20388;-66
2023/03/30 00:35:29;;;;;;;1.40;0.90;;;14.90;73.50;;;;;;5045115;28;20035;-66
2023/03/30 00:38:02;;;;;;;1.58;1.10;;;14.90;73.50;;;;;;5033033;28;20123;-66
2023/03/30 00:40:29;;;;;;;1.88;1.17;;;14.80;73.40;;;;;;5044967;28;20029;-65
2023/03/30 00:43:13;;;;;;;1.70;1.33;;;14.80;73.50;;;;;;5047891;28;20128;-66
2023/03/30 00:45:39;;;;;;;2.10;1.10;;;14.80;73.00;;;;;;5040898;28;20068;-66
2023/03/30 00:48:26;;;;;;;1.13;0.90;;;14.80;72.90;;;;;;5042298;28;20044;-66
2023/03/30 00:51:02;;;;;;;6.20;1.55;;;14.80;72.80;;;;;;5047708;28;20028;-65
2023/03/30 00:53:38;;;;;;;0.85;0.85;;;14.80;72.60;;;;;;5042856;28;20021;-64
2023/03/30 00:56:07;;;;;;;1.70;1.15;;;14.90;72.50;;;;;;5035642;28;20056;-64
2023/03/30 00:58:34;;;;;;;2.25;1.10;;;14.90;72.10;;;;;;5039987;28;20021;-65
2023/03/30 01:01:03;;;;;;;2.80;1.00;;;14.90;72.10;;;;;;5046292;28;20029;-64
2023/03/30 01:03:47;;;;;;;1.20;1.10;;;15.00;72.00;;;;;;5048166;28;20032;-66
2023/03/30 01:06:16;;;;;;;1.85;0.60;;;15.00;71.70;;;;;;5038375;28;20175;-65
2023/03/30 01:08:43;;;;;;;1.00;0.60;;;15.00;71.80;;;;;;5048199;28;20112;-65
2023/03/30 01:11:09;;;;;;;0.63;0.57;;;15.00;71.60;;;;;;5038454;28;20068;-64
2023/03/30 01:13:38;;;;;;;2.50;1.23;;;15.10;71.40;;;;;;5045930;28;20190;-64
2023/03/30 01:16:34;;;;;;;0.73;0.70;;;15.10;71.10;;;;;;5044649;28;20033;-65
2023/03/30 01:19:09;;;;;;;1.02;0.90;;;15.10;71.00;;;;;;5045627;28;20024;-65
2023/03/30 01:21:59;;;;;;;1.33;1.10;;;15.10;70.90;;;;;;5038441;28;20072;-64
2023/03/30 01:24:41;;;;;;;1.20;1.00;;;15.10;70.80;;;;;;5043126;28;20082;-64
2023/03/30 01:27:48;;;;;;;1.37;1.17;;;15.10;70.90;;;;;;5041022;28;20064;-66
2023/03/30 01:30:41;;;;;;;1.63;0.60;;;15.10;70.90;;;;;;5048526;28;20295;-66
2023/03/30 01:33:31;;;;;;;1.20;0.75;;;15.10;71.00;;;;;;5043370;28;20037;-64
2023/03/30 01:36:16;;;;;;;1.27;0.77;;;15.10;71.00;;;;;;5039576;28;20452;-66
2023/03/30 01:38:51;;;;;;;1.80;0.90;;;15.10;70.90;;;;;;5043609;28;20024;-64
2023/03/30 01:41:47;;;;;;;2.42;1.00;;;15.10;70.90;;;;;;5042887;28;20531;-64
2023/03/30 01:44:31;;;;;;;2.95;1.23;;;15.10;70.90;;;;;;5041311;28;20051;-66
2023/03/30 01:47:13;;;;;;;3.17;0.98;;;15.10;70.90;;;;;;5038354;28;20376;-64
2023/03/30 01:50:17;;;;;;;2.22;1.40;;;15.10;70.90;;;;;;5051646;28;20021;-66
2023/03/30 01:52:59;;;;;;;1.20;0.93;;;15.10;70.70;;;;;;5046442;28;20102;-66
2023/03/30 01:55:32;;;;;;;1.27;0.77;;;15.10;70.70;;;;;;5042264;28;20034;-66
2023/03/30 01:58:22;;;;;;;1.10;0.70;;;15.10;70.70;;;;;;5044041;28;20104;-65
2023/03/30 02:00:49;;;;;;;1.20;0.73;;;15.10;70.50;;;;;;5045900;28;20039;-65
2023/03/30 02:03:21;;;;;;;1.00;0.80;;;15.10;70.40;;;;;;5044929;28;20021;-65
2023/03/30 02:05:50;;;;;;;1.98;1.08;;;15.20;70.40;;;;;;5039686;28;20476;-65
2023/03/30 02:08:21;;;;;;;0.93;0.70;;;15.20;70.40;;;;;;5044334;28;20855;-65
2023/03/30 02:10:49;;;;;;;0.73;0.60;;;15.20;70.40;;;;;;5042492;28;20163;-65
2023/03/30 02:13:16;;;;;;;1.25;0.80;;;15.20;70.40;;;;;;5052131;28;20074;-65
2023/03/30 02:15:51;;;;;;;1.33;0.80;;;15.20;70.50;;;;;;5041232;28;20038;-64
2023/03/30 02:18:18;;;;;;;1.05;0.60;;;15.10;70.50;;;;;;5043096;28;20427;-64
2023/03/30 02:20:44;;;;;;;1.00;0.90;;;15.10;70.60;;;;;;5036763;28;20039;-64
2023/03/30 02:23:10;;;;;;;3.22;1.00;;;15.10;70.60;;;;;;5053024;28;20037;-65
2023/03/30 02:25:39;;;;;;;0.63;0.55;;;15.10;70.60;;;;;;5050360;28;20063;-66
2023/03/30 02:28:08;;;;;;;1.25;0.82;;;15.00;70.60;;;;;;5045025;28;20030;-66
2023/03/30 02:30:41;;;;;;;1.90;0.98;;;15.00;70.50;;;;;;5047154;28;20524;-66
2023/03/30 02:33:15;;;;;;;0.70;0.70;;;15.00;70.50;;;;;;5045371;28;20455;-65
2023/03/30 02:35:56;;;;;;;1.58;0.80;;;15.00;70.50;;;;;;5034034;28;20017;-65
2023/03/30 02:38:33;;;;;;;2.97;1.08;;;15.00;70.40;;;;;;5047175;28;20039;-66
2023/03/30 02:41:36;;;;;;;1.00;0.88;;;15.00;70.30;;;;;;5035476;28;20539;-65
2023/03/30 02:44:24;;;;;;;1.60;1.00;;;14.90;70.20;;;;;;5049845;28;20032;-66
2023/03/30 02:47:05;;;;;;;1.15;0.50;;;14.90;70.20;;;;;;5044871;28;20518;-65
2023/03/30 02:49:50;;;;;;;0.73;0.73;;;14.90;70.20;;;;;;5039615;28;20023;-65
2023/03/30 02:52:37;;;;;;;1.13;0.63;;;14.90;70.00;;;;;;5039772;28;20086;-64
2023/03/30 02:55:21;;;;;;;1.50;0.82;;;14.90;70.00;;;;;;5037730;28;20033;-66
2023/03/30 02:57:50;;;;;;;0.50;0.50;;;15.00;70.10;;;;;;5047249;28;20481;-66
2023/03/30 03:00:22;;;;;;;1.98;1.02;;;15.00;70.60;;;;;;5034587;28;20504;-66
2023/03/30 03:02:53;;;;;;;1.67;1.15;;;15.00;70.00;;;;;;5042144;28;20476;-64
2023/03/30 03:05:19;;;;;;;1.30;0.80;;;15.10;70.00;;;;;;5044495;28;20021;-65
2023/03/30 03:07:46;;;;;;;0.93;0.85;;;15.10;69.90;;;;;;5031112;28;20075;-65
2023/03/30 03:10:13;;;;;;;0.90;0.63;;;15.10;69.80;;;;;;5051437;28;20031;-66
2023/03/30 03:12:41;;;;;;;7.40;0.50;;;15.20;69.80;;;;;;5049956;28;20033;-65
2023/03/30 03:15:07;;;;;;;3.20;0.80;;;15.20;69.80;;;;;;5050499;28;20035;-65
2023/03/30 03:17:35;;;;;;;0.85;0.77;;;15.20;69.90;;;;;;5045124;28;20064;-67
2023/03/30 03:20:04;;;;;;;1.80;0.80;;;15.20;69.90;;;;;;5050407;28;20064;-65
2023/03/30 03:22:31;;;;;;;1.17;0.93;;;15.30;70.00;;;;;;5049920;28;20083;-66
2023/03/30 03:24:56;;;;;;;0.57;0.57;;;15.30;70.00;;;;;;5050898;28;20021;-66
2023/03/30 03:27:22;;;;;;;1.58;0.90;;;15.30;69.90;;;;;;5048414;28;20446;-66
2023/03/30 03:29:48;;;;;;;1.20;0.63;;;15.30;70.00;;;;;;5050605;28;20023;-66
2023/03/30 03:32:15;;;;;;;0.85;0.60;;;15.30;70.00;;;;;;5038650;28;20068;-66
2023/03/30 03:34:43;;;;;;;0.68;0.60;;;15.30;70.10;;;;;;5036611;28;20033;-65
2023/03/30 03:37:10;;;;;;;0.60;0.60;;;15.30;70.10;;;;;;5044316;28;20029;-63
2023/03/30 03:39:36;;;;;;;0.45;0.45;;;15.20;70.20;;;;;;5050370;28;20499;-65
2023/03/30 03:42:03;;;;;;;0.30;0.30;;;15.20;70.20;;;;;;5045215;28;20119;-65
2023/03/30 03:44:29;;;;;;;1.60;0.93;;;15.20;70.20;;;;;;5050240;28;20036;-64
2023/03/30 03:46:55;;;;;;;0.40;0.40;;;15.20;70.30;;;;;;5049087;28;20025;-65
2023/03/30 03:49:21;;;;;;;1.25;0.55;;;15.10;70.40;;;;;;5046895;28;20032;-65
2023/03/30 03:51:46;;;;;;;2.30;0.60;;;15.10;70.50;;;;;;5043821;28;20032;-66
2023/03/30 03:54:12;;;;;;;1.20;0.70;;;15.00;70.40;;;;;;5048453;28;20041;-66
2023/03/30 03:56:38;;;;;;;2.00;0.60;;;15.00;70.50;;;;;;5046291;28;20029;-65
2023/03/30 03:59:04;;;;;;;3.70;1.02;;;15.00;70.70;;;;;;5050722;28;20049;-65
2023/03/30 04:01:30;;;;;;;1.92;0.80;;;14.90;70.70;;;;;;5049828;28;20111;-66
2023/03/30 04:03:56;;;;;;;0.75;0.70;;;14.90;71.40;;;;;;5046417;28;20398;-64
2023/03/30 04:06:22;;;;;;;1.27;0.93;;;14.90;70.90;;;;;;5044087;28;20477;-64
2023/03/30 04:08:48;;;;;;;2.25;0.70;;;14.90;71.10;;;;;;5048070;28;20028;-64
2023/03/30 04:11:14;;;;;;;0.63;0.50;;;14.90;71.20;;;;;;5041975;28;20025;-63
2023/03/30 04:13:40;;;;;;;1.38;0.77;;;14.90;71.30;;;;;;5044819;28;20112;-64
2023/03/30 04:16:06;;;;;;;1.88;0.50;;;14.90;71.30;;;;;;5047344;28;20044;-69
2023/03/30 04:18:33;;;;;;;0.50;0.30;;;15.00;71.50;;;;;;5048144;28;20123;-66
2023/03/30 04:21:01;;;;;;;2.28;0.55;;;15.00;71.60;;;;;;5047978;28;20087;-65
2023/03/30 04:23:32;;;;;;;0.57;0.57;;;15.00;71.70;;;;;;5045680;28;20123;-64
2023/03/30 04:26:03;;;;;;;1.00;0.70;;;15.00;71.90;;;;;;5049699;28;20329;-65
2023/03/30 04:28:31;;;;;;;2.40;0.70;;;15.00;72.20;;;;;;5045172;28;20043;-65
2023/03/30 04:31:03;;;;;;;1.35;0.50;;;15.00;72.20;;;;;;5048343;28;20036;-64
2023/03/30 04:33:33;;;;;;;3.65;0.90;;;15.10;72.40;;;;;;5047337;28;20476;-64
2023/03/30 04:36:00;;;;;;;0.60;0.60;;;15.10;72.50;;;;;;5048706;28;20032;-66
2023/03/30 04:38:26;;;;;;;0.60;0.57;;;15.10;72.60;;;;;;5045395;28;20028;-65
2023/03/30 04:40:53;;;;;;;2.13;0.55;;;15.10;72.80;;;;;;5045329;28;20492;-65
2023/03/30 04:43:20;;;;;;;1.00;0.50;;;15.10;72.90;;;;;;5043140;28;20057;-66
2023/03/30 04:45:54;;;;;;;0.30;0.30;;;15.10;72.90;;;;;;5045018;28;20119;-65
2023/03/30 04:48:21;;;;;;;1.58;0.80;;;15.20;73.00;;;;;;5041589;28;20526;-64
2023/03/30 04:50:48;;;;;;;3.03;1.23;;;15.10;73.10;;;;;;5041500;28;20024;-65
2023/03/30 04:53:15;;;;;;;0.40;0.40;;;15.10;73.20;;;;;;5043118;28;20036;-65
2023/03/30 04:55:46;;;;;;;1.13;0.50;;;15.10;73.40;;;;;;5045754;28;20051;-63
2023/03/30 04:58:11;;;;;;;0.45;0.30;;;15.10;73.50;;;;;;5047038;28;20044;-66
2023/03/30 05:00:38;;;;;;;0.50;0.50;;;15.10;73.60;;;;;;5023065;28;20440;-66
2023/03/30 05:03:10;;;;;;;1.05;0.45;;;15.10;73.50;;;;;;5044883;28;20029;-65
2023/03/30 05:05:37;;;;;;;1.67;0.77;;;15.10;73.70;;;;;;5041029;28;20025;-64
2023/03/30 05:08:03;;;;;;;1.23;0.80;;;15.10;74.00;;;;;;5047454;28;20060;-64
2023/03/30 05:10:29;;;;;;;2.88;0.70;;;15.10;74.40;;;;;;5044412;28;20029;-65
2023/03/30 05:12:55;;;;;;;1.48;0.63;;;15.00;74.90;;;;;;5047008;28;20044;-65
2023/03/30 05:15:21;;;;;;;1.05;0.77;;;14.90;75.70;;;;;;5047055;28;20047;-65
2023/03/30 05:17:47;;;;;;;2.72;0.88;;;14.80;76.70;;;;;;5043594;28;20029;-65
2023/03/30 05:20:13;;;;;;;1.23;0.80;;;14.70;77.60;;;;;;5040125;28;20037;-64
2023/03/30 05:22:40;;;;;;;1.60;0.90;;;14.60;77.90;;;;;;5046204;28;20029;-65
2023/03/30 05:25:06;;;;;;;1.77;0.77;;;14.50;78.10;;;;;;5042316;28;20423;-65
2023/03/30 05:27:32;;;;;;;3.00;0.90;;;14.50;78.50;;;;;;5048112;28;20020;-66
2023/03/30 05:29:57;;;;;;;1.40;0.77;;;14.40;79.20;;;;;;5040438;28;20116;-65
2023/03/30 05:32:23;;;;;;;1.20;0.95;;;14.40;79.40;;;;;;5037066;28;20025;-64
2023/03/30 05:34:49;;;;;;;1.15;0.85;;;14.40;79.60;;;;;;5041466;28;20025;-64
2023/03/30 05:37:15;;;;;;;2.13;1.10;;;14.30;79.60;;;;;;5048589;28;20078;-64
2023/03/30 05:39:41;;;;;;;0.52;0.52;;;14.30;79.70;;;;;;5041471;28;20021;-65
2023/03/30 05:42:07;;;;;;;1.08;1.00;;;14.30;80.00;;;;;;5049931;28;20108;-65
2023/03/30 05:44:33;;;;;;;3.20;1.05;;;14.20;80.30;;;;;;5044991;28;20033;-65
2023/03/30 05:46:58;;;;;;;1.10;0.90;;;14.20;80.70;;;;;;5045699;28;20055;-66
2023/03/30 05:49:24;;;;;;;1.05;0.95;;;14.20;80.70;;;;;;5046272;28;20029;-65
2023/03/30 05:51:50;;;;;;;3.13;0.85;;;14.20;80.70;;;;;;5037101;28;20025;-65
2023/03/30 05:54:16;;;;;;;3.05;1.15;;;14.20;80.80;;;;;;5047655;28;20496;-64
2023/03/30 05:56:42;;;;;;;5.18;1.52;;;14.10;81.30;;;;;;5038761;28;20068;-65
2023/03/30 05:59:09;;;;;;;1.67;1.00;;;14.10;81.50;;;;;;5042428;28;20032;-65
2023/03/30 06:01:35;;;;;;;1.52;1.05;;;14.10;81.60;;;;;;5039944;28;20568;-65
2023/03/30 06:04:02;;;;;;;3.70;1.15;;;14.10;82.20;;;;;;5048693;28;20534;-66
2023/03/30 06:06:28;;;;;;;1.27;1.02;;;14.10;81.60;;;;;;5042010;28;20033;-66
2023/03/30 06:08:53;;;;;;;3.67;1.05;;;14.10;81.70;;;;;;5043710;28;20045;-65
2023/03/30 06:11:19;;;;;;;3.47;1.88;;;14.00;81.70;;;;;;5041056;28;20021;-64
2023/03/30 06:13:48;;;;;;;1.45;1.20;;;14.00;82.30;;;;;;5036204;28;20029;-65
2023/03/30 06:16:13;;;;;;;1.35;1.15;;;14.10;82.20;;;;;;5040792;28;20061;-65
2023/03/30 06:18:39;;;;;;;2.28;1.00;;;14.10;82.10;;;;;;5034495;28;20088;-65
2023/03/30 06:21:05;;;;;;;2.08;0.70;;;14.10;81.90;;;;;;5045311;28;20048;-66
2023/03/30 06:23:32;;;;;;;3.33;1.13;;;14.20;82.10;;;;;;5044180;28;20388;-65
2023/03/30 06:25:59;;;;;;;3.58;1.40;;;14.20;82.10;;;;;;5039763;28;20440;-66
2023/03/30 06:28:26;;;;;;;1.65;1.02;;;14.20;82.00;;;;;;5042090;28;20892;-66
2023/03/30 06:30:52;;;;;;;2.08;1.13;;;14.20;82.30;;;;;;5046842;28;20480;-65
2023/03/30 06:33:18;;;;;;;3.80;1.27;;;14.20;82.30;;;;;;5051734;28;20028;-66
2023/03/30 06:35:49;;;;;;;2.42;1.50;;;14.30;82.20;;;;;;5050060;28;20472;-65
2023/03/30 06:38:16;;;;;;;2.60;1.48;;;14.30;82.40;;;;;;5048715;28;20226;-66
2023/03/30 06:40:42;;;;;;;3.08;1.63;;;14.30;82.50;;;;;;5045577;28;20032;-67
2023/03/30 06:43:17;;;;;;;3.70;1.10;;;14.30;82.30;;;;;;5047602;28;20029;-65
2023/03/30 06:45:48;;;;;;;3.92;1.58;;;14.30;82.40;;;;;;5043736;28;20024;-65
2023/03/30 06:48:14;;;;;;;2.42;1.08;;;14.30;82.40;;;;;;5041267;28;20036;-64
2023/03/30 06:50:40;;;;;;;1.98;1.00;;;14.30;82.30;;;;;;5044070;28;20480;-64
2023/03/30 06:53:05;;;;;;;1.98;1.27;;;14.30;82.20;;;;;;5045847;28;20033;-64
2023/03/30 06:55:32;;;;;;;4.63;1.23;;;14.30;82.10;;;;;;5046260;28;20029;-64
2023/03/30 06:57:57;;;;;;;4.38;1.02;;;14.30;82.00;;;;;;5043129;28;20370;-64
2023/03/30 07:00:23;;;;;;;3.33;1.80;;;14.30;82.10;;;;;;5036896;28;20099;-65
2023/03/30 07:02:49;;;;;;;1.77;1.10;;;14.30;82.60;;;;;;5046986;28;20040;-68
2023/03/30 07:05:14;;;;;;;3.17;1.10;;;14.30;82.80;;;;;;5056564;28;20478;-64
2023/03/30 07:07:40;;;;;;;1.98;1.05;;;14.20;82.80;;;;;;5042439;28;20073;-66
2023/03/30 07:10:10;;;;;;;5.68;1.35;;;14.20;82.60;;;;;;5051712;28;20033;-66
2023/03/30 07:12:40;;;;;;;1.83;1.17;;;14.20;82.50;;;;;;5045331;28;20104;-64
2023/03/30 07:15:06;;;;;;;3.95;1.55;;;14.20;82.10;;;;;;5043653;28;20051;-65
2023/03/30 07:17:33;;;;;;;4.07;1.15;;;14.20;82.00;;;;;;5023172;28;20106;-69
2023/03/30 07:20:00;;;;;;;1.92;1.02;;;14.20;81.50;;;;;;5049852;28;20036;-66
2023/03/30 07:22:26;;;;;;;3.42;1.90;;;14.30;81.20;;;;;;5048835;28;20488;-68
2023/03/30 07:24:52;;;;;;;1.60;1.50;;;14.30;80.90;;;;;;5052617;28;20021;-67
2023/03/30 07:27:17;;;;;;;3.15;1.15;;;14.30;80.70;;;;;;5051394;28;20373;-68
2023/03/30 07:29:43;;;;;;;5.70;1.48;;;14.30;80.50;;;;;;5049839;28;20021;-66
2023/03/30 07:32:09;;;;;;;1.98;0.77;;;14.40;80.30;;;;;;5048429;28;20025;-65
2023/03/30 07:34:34;;;;;;;3.25;1.48;;;14.40;80.40;;;;;;5042425;28;20103;-64
2023/03/30 07:37:00;;;;;;;4.30;1.05;;;14.50;80.40;;;;;;5048629;28;20032;-65
2023/03/30 07:39:26;;;;;;;3.95;1.52;;;14.60;80.20;;;;;;5041902;28;20033;-66
2023/03/30 07:41:52;;;;;;;2.10;1.33;;;14.70;80.20;;;;;;5035212;28;20532;-65
2023/03/30 07:44:18;;;;;;;5.78;1.02;;;14.70;80.20;;;;;;5051574;28;20033;-66
2023/03/30 07:46:44;;;;;;;1.58;1.17;;;14.70;80.20;;;;;;5038626;28;20428;-65
2023/03/30 07:49:09;;;;;;;1.10;0.80;;;14.80;79.90;;;;;;5042968;28;20041;-65
2023/03/30 07:51:35;;;;;;;4.38;1.38;;;14.80;79.30;;;;;;5043187;28;20488;-64
2023/03/30 07:54:02;;;;;;;1.42;1.13;;;14.80;79.40;;;;;;5049215;28;20044;-64
2023/03/30 07:56:27;;;;;;;5.63;2.05;;;14.80;79.30;;;;;;5050375;28;20571;-64
2023/03/30 07:58:53;;;;;;;6.13;2.20;;;14.80;79.00;;;;;;5048256;28;20124;-64
2023/03/30 08:01:19;;;;;;;1.73;0.95;;;14.80;78.90;;;;;;5051954;28;20029;-66
2023/03/30 08:03:47;;;;;;;5.63;1.33;;;14.80;78.70;;;;;;5050349;28;20052;-66
2023/03/30 08:06:13;;;;;;;6.60;1.52;;;14.80;78.50;;;;;;5046438;28;20028;-67
2023/03/30 08:08:39;;;;;;;1.92;1.10;;;14.80;77.70;;;;;;5050844;28;20399;-63
2023/03/30 08:11:07;;;;;;;4.35;1.20;;;14.80;77.50;;;;;;5034055;28;20484;-65
2023/03/30 08:13:36;;;;;;;1.73;1.23;;;14.80;77.40;;;;;;5050460;28;20025;-66
2023/03/30 08:16:01;;;;;;;3.88;1.10;;;14.80;76.60;;;;;;5052643;28;20037;-67
2023/03/30 08:18:27;;;;;;;1.30;0.93;;;14.80;76.10;;;;;;5050611;28;20051;-66
2023/03/30 08:20:53;;;;;;;7.43;1.30;;;14.80;76.20;;;;;;5051483;28;20047;-64
2023/03/30 08:23:19;;;;;;;5.63;1.90;;;14.80;75.80;;;;;;5025187;28;20025;-64
2023/03/30 08:25:50;;;;;;;3.17;1.65;;;14.90;75.90;;;;;;5049403;28;20082;-63
2023/03/30 08:28:15;;;;;;;2.25;1.10;;;14.90;75.50;;;;;;5048968;28;20049;-64
2023/03/30 08:30:41;;;;;;;2.53;1.23;;;15.00;75.40;;;;;;5049809;28;20067;-64
2023/03/30 08:33:07;;;;;;;5.47;2.22;;;15.00;75.00;;;;;;5047477;28;20028;-65
2023/03/30 08:35:33;;;;;;;3.20;1.48;;;15.10;75.30;;;;;;5048458;28;20121;-63
2023/03/30 08:37:59;;;;;;;2.95;1.30;;;15.10;74.20;;;;;;5047973;28;20123;-63
2023/03/30 08:40:26;;;;;;;6.20;1.70;;;15.20;74.50;;;;;;5046828;28;20040;-64
2023/03/30 08:43:20;;;;;;;10.43;1.77;;;15.30;73.80;;;;;;5046925;28;20037;-67
2023/03/30 08:45:46;;;;;;;3.92;1.48;;;15.40;73.70;;;;;;5050957;28;20021;-67
2023/03/30 08:48:24;;;;;;;4.57;1.42;;;15.50;73.30;;;;;;5049735;28;20025;-63
2023/03/30 08:50:59;;;;;;;7.13;2.30;;;15.50;73.10;;;;;;5039347;28;20030;-63
2023/03/30 08:53:31;;;;;;;2.08;1.30;;;15.50;73.20;;;;;;5043296;28;20032;-66
2023/03/30 08:56:02;;;;;;;4.63;0.93;;;15.40;73.40;;;;;;5051306;28;20103;-67
2023/03/30 08:58:58;;;;;;;3.77;1.37;;;15.30;73.00;;;;;;5052302;28;20024;-66
2023/03/30 09:01:40;;;;;;;8.95;2.20;;;15.30;73.00;;;;;;5052187;28;20390;-67
2023/03/30 09:04:24;;;;;;;;;;;15.20;73.50;;;;;;5049944;28;20024;-64
2023/03/30 09:06:53;;;;;;;3.35;1.80;;;15.20;73.50;;;;;;5041211;28;19909;-63
2023/03/30 09:09:22;;;;;;;7.28;1.52;;;15.10;73.40;;;;;;5045951;28;20049;-63
2023/03/30 09:11:54;;;;;;;3.95;1.10;;;15.10;73.30;;;;;;5049207;28;20032;-63
2023/03/30 09:14:42;;;;;;;3.88;1.67;;;15.00;73.20;;;;;;5044655;28;20030;-64
2023/03/30 09:17:11;;;;;;;4.40;1.45;;;15.00;73.20;;;;;;5032259;28;20024;-64
2023/03/30 09:20:05;;;;;;;5.63;1.88;;;15.00;73.70;;;;;;5037844;28;20029;-64
2023/03/30 09:22:38;;;;;;;9.15;1.98;;;15.00;72.90;;;;;;5034610;28;20124;-65
2023/03/30 09:25:36;;;;;;;4.68;1.02;;;14.90;74.40;;;;;;5040582;28;20150;-64
2023/03/30 09:28:31;;;;;;;12.27;1.98;;;14.60;76.00;;;;;;5036228;28;20058;-64
2023/03/30 09:31:09;;;;;;;4.15;1.92;;;14.50;77.40;;;;;;5040580;28;20029;-64
2023/03/30 09:34:01;;;;;;;3.83;1.38;;;14.30;78.70;;;;;;5047961;28;20104;-67
2023/03/30 09:36:45;;;;;;;4.65;1.77;;;14.40;79.30;;;;;;5023381;28;20037;-67
2023/03/30 09:39:19;;;;;;;6.97;1.67;;;14.40;79.40;;;;;;5044927;28;20073;-67
2023/03/30 09:42:13;;;;;;;3.42;1.50;;;14.60;79.10;;;;;;5044556;28;20025;-66
2023/03/30 09:44:51;;;;;;;6.75;1.30;;;14.80;78.90;;;;;;5077355;28;20062;-64
2023/03/30 09:47:20;;;;;;;10.07;2.92;;;14.90;78.40;;;;;;5030496;28;20028;-65
2023/03/30 09:49:46;;;;;;;1.92;1.42;;;15.20;78.00;;;;;;5039558;28;20504;-64
2023/03/30 09:52:21;;;;;;;4.53;1.75;;;15.30;77.20;;;;;;5027566;28;20041;-65
2023/03/30 09:54:47;;;;;;;4.13;2.25;;;15.40;76.60;;;;;;5031687;28;20038;-65
2023/03/30 09:57:25;;;;;;;6.88;1.92;;;15.40;76.30;;;;;;5037162;28;20408;-65
2023/03/30 09:59:55;;;;;;;3.28;1.20;;;15.40;75.30;;;;;;5030816;28;20357;-64
2023/03/30 10:02:23;;;;;;;4.88;1.60;;;15.30;75.30;;;;;;5044789;28;20061;-65
2023/03/30 10:04:52;;;;;;;3.22;1.58;;;15.50;74.70;;;;;;5048536;28;20036;-64
2023/03/30 10:07:36;;;;;;;3.60;1.50;;;15.60;74.20;;;;;;5039766;28;20050;-64
2023/03/30 10:10:13;;;;;;;8.50;2.97;;;15.60;74.10;;;;;;5041655;28;20476;-64
2023/03/30 10:12:39;;;;;;;7.78;1.90;;;15.60;72.30;;;;;;5044088;28;20025;-66
2023/03/30 10:15:13;;;;;;;7.65;1.90;;;15.60;72.80;;;;;;5044436;28;20033;-63
2023/03/30 10:17:40;;;;;;;5.18;2.10;;;15.90;72.80;;;;;;5044099;28;20053;-63
2023/03/30 10:20:26;;;;;;;8.13;2.20;;;16.10;71.40;;;;;;5044763;28;20087;-63
2023/03/30 10:22:54;;;;;;;4.32;1.52;;;16.20;70.00;;;;;;5040185;28;20017;-63
2023/03/30 10:25:26;;;;;;;7.90;2.50;;;16.30;69.60;;;;;;5044322;28;20043;-62
2023/03/30 10:27:54;;;;;;;7.90;2.03;;;16.20;69.00;;;;;;5048121;28;20045;-64
2023/03/30 10:30:23;;;;;;;7.25;2.17;;;16.10;69.00;;;;;;5039752;28;20037;-63
2023/03/30 10:32:50;;;;;;;2.65;1.38;;;15.90;68.70;;;;;;5048080;28;20519;-64
2023/03/30 10:35:23;;;;;;;18.88;2.33;;;15.80;69.00;;;;;;5039339;28;20029;-63
2023/03/30 10:37:52;;;;;;;6.05;2.05;;;15.70;68.90;;;;;;5047399;28;20095;-66
2023/03/30 10:40:20;;;;;;;4.30;1.52;;;15.60;69.10;;;;;;5045740;28;20024;-63
2023/03/30 10:42:51;;;;;;;3.00;2.08;;;15.50;68.30;;;;;;5042439;28;20017;-64
2023/03/30 10:45:25;;;;;;;4.75;1.65;;;15.60;69.10;;;;;;5052250;28;20044;-64
2023/03/30 10:48:06;;;;;;;2.92;2.13;;;15.60;69.10;;;;;;5051289;28;20064;-64
2023/03/30 10:50:45;;;;;;;3.38;1.65;;;15.80;68.80;;;;;;5046702;28;20036;-66
2023/03/30 10:53:37;;;;;;;6.93;2.17;;;16.00;68.30;;;;;;5046483;28;20067;-67
2023/03/30 10:56:17;;;;;;;6.20;1.55;;;16.10;67.90;;;;;;5052607;28;20048;-67
2023/03/30 10:59:14;;;;;;;8.93;1.75;;;16.30;67.10;;;;;;5048469;28;20549;-65
2023/03/30 11:02:20;;;;;;;2.08;1.08;;;16.30;66.00;;;;;;5041913;28;20056;-63
2023/03/30 11:04:52;;;;;;;7.40;2.70;;;16.40;66.10;;;;;;5035981;28;20044;-63
2023/03/30 11:07:39;;;;;;;11.57;1.48;;;16.30;66.50;;;;;;5038721;28;20016;-64
2023/03/30 11:10:30;;;;;;;6.15;1.70;;;16.30;66.30;;;;;;5027294;28;20438;-63
2023/03/30 11:13:37;;;;;;;8.40;2.53;;;16.20;66.50;;;;;;5040170;28;20092;-63
2023/03/30 11:16:27;;;;;;;4.38;2.13;;;16.20;66.90;;;;;;5041115;28;20504;-65
2023/03/30 11:19:09;;;;;;;12.35;2.45;;;16.20;66.90;;;;;;5049485;28;20451;-64
2023/03/30 11:22:02;;;;;;;6.05;2.53;;;16.30;67.00;;;;;;5048424;28;20095;-64
2023/03/30 11:24:28;;;;;;;7.55;1.70;;;16.40;66.90;;;;;;5039262;28;20460;-64
2023/03/30 11:27:05;;;;;;;4.25;1.73;;;16.50;67.10;;;;;;5051985;28;20035;-66
2023/03/30 11:29:52;;;;;;;2.63;1.63;;;16.70;66.30;;;;;;5045867;28;20024;-65
2023/03/30 11:32:56;;;;;;;9.60;2.15;;;16.80;66.30;;;;;;5048458;28;20021;-67
2023/03/30 11:35:31;;;;;;;9.77;1.65;;;17.00;65.70;;;;;;5052154;28;20033;-66
2023/03/30 11:38:02;;;;;;;8.38;2.00;;;17.10;65.20;;;;;;5043576;28;20021;-67
2023/03/30 11:40:40;;;;;;;7.53;2.00;;;17.30;64.70;;;;;;5047503;28;20036;-65
2023/03/30 11:43:15;;;;;;;3.15;1.38;;;17.50;63.50;;;;;;5046907;28;20033;-67
2023/03/30 11:45:45;;;;;;;2.58;1.65;;;17.50;62.90;;;;;;5051561;28;20468;-68
2023/03/30 11:48:25;;;;;;;7.22;1.92;;;17.40;62.70;;;;;;5040193;28;20412;-68
2023/03/30 11:51:03;;;;;;;7.20;2.08;;;17.20;62.50;;;;;;5042493;28;20111;-69
2023/03/30 11:53:53;;;;;;;3.95;1.60;;;17.10;63.00;;;;;;5040807;28;20029;-69
2023/03/30 11:56:54;;;;;;;4.93;1.13;;;16.90;62.90;;;;;;5036622;28;20052;-73
2023/03/30 11:59:50;;;;;;;3.80;1.95;;;16.90;63.40;;;;;;5042049;28;20533;-65
2023/03/30 12:02:34;;;;;;;6.75;1.30;;;16.90;63.50;;;;;;5041408;28;20442;-66
2023/03/30 12:05:07;;;;;;;3.10;1.60;;;16.90;63.60;;;;;;5050346;28;20028;-68
2023/03/30 12:07:46;;;;;;;4.70;1.70;;;16.80;63.20;;;;;;5046508;28;20384;-66
2023/03/30 12:10:37;;;;;;;5.00;1.58;;;16.80;63.10;;;;;;5043155;28;20078;-68
2023/03/30 12:13:04;;;;;;;8.90;1.20;;;16.80;63.30;;;;;;5054298;28;20040;-70
2023/03/30 12:15:52;;;;;;;6.10;1.38;;;16.70;63.50;;;;;;5048860;28;20632;-69
2023/03/30 12:18:25;;;;;;;6.18;1.75;;;16.80;61.90;;;;;;5045223;28;20029;-66
2023/03/30 12:21:19;;;;;;;4.57;1.65;;;16.70;62.20;;;;;;5077593;28;20028;-66
2023/03/30 12:24:12;;;;;;;9.32;2.17;;;16.80;62.20;;;;;;5052878;28;20039;-67
2023/03/30 12:26:38;;;;;;;8.38;1.60;;;17.00;61.60;;;;;;5044339;28;20100;-65
2023/03/30 12:29:04;;;;;;;2.83;1.35;;;16.90;61.30;;;;;;5039489;28;20117;-63
2023/03/30 12:31:51;;;;;;;2.92;1.17;;;17.00;61.70;;;;;;5042302;28;20028;-63
2023/03/30 12:34:18;;;;;;;5.72;1.30;;;17.00;62.10;;;;;;5044389;28;20384;-64
2023/03/30 12:36:59;;;;;;;6.78;1.58;;;17.00;62.00;;;;;;5045066;28;20029;-68
2023/03/30 12:39:52;;;;;;;4.03;1.27;;;17.10;61.70;;;;;;5036927;28;20075;-66
2023/03/30 12:42:38;;;;;;;6.22;1.48;;;17.10;62.00;;;;;;5035845;28;20029;-66
2023/03/30 12:45:19;;;;;;;7.07;1.33;;;17.20;62.00;;;;;;5058962;28;20048;-63
2023/03/30 12:47:51;;;;;;;8.82;1.60;;;17.30;61.00;;;;;;5030544;28;20025;-67
2023/03/30 12:50:58;;;;;;;11.93;2.63;;;17.40;60.50;;;;;;5033632;28;20435;-65
2023/03/30 12:53:36;;;;;;;2.95;2.00;;;17.60;59.90;;;;;;5005189;28;20113;-64
2023/03/30 12:56:12;;;;;;;3.25;1.35;;;17.80;59.50;;;;;;5036759;28;20048;-66
2023/03/30 12:58:55;;;;;;;2.78;1.48;;;18.10;59.40;;;;;;5048567;28;20033;-65
2023/03/30 13:01:49;;;;;;;9.65;1.08;;;18.20;59.00;;;;;;5033408;28;20034;-65
2023/03/30 13:04:18;;;;;;;5.18;1.85;;;18.20;59.20;;;;;;5045003;28;20484;-66
2023/03/30 13:06:52;;;;;;;3.65;1.80;;;18.20;59.50;;;;;;5045387;28;20087;-67
2023/03/30 13:09:24;;;;;;;6.55;1.65;;;18.40;59.40;;;;;;5044699;28;20060;-63
2023/03/30 13:11:52;;;;;;;6.03;1.55;;;18.70;59.00;;;;;;5043789;28;20025;-64
2023/03/30 13:14:34;;;;;;;9.43;2.35;;;18.70;57.30;;;;;;5046496;28;20468;-69
2023/03/30 13:16:59;;;;;;;5.30;1.65;;;18.50;57.40;;;;;;5044963;28;20064;-70